< < Back
Terminal Aerodrome Forecast


Current Version              Previous Versions:   1  2  3  4  5  6  7  8  9  

Terminal Aerodrome Forecast

924
FTUS42 KGSP 271134
TAFAVL
TAF
KAVL 271134Z 2712/2812 34009KT P6SM -SHRA BKN020 OVC060
     FM271400 34008KT P6SM OVC020
     FM271900 33009KT P6SM BKN045
     FM280800 33010KT P6SM SCT100=



Latest METAR

010
SAUS70 KWBC 271300 RRD
MTRAVL
METAR KAVL 271254Z 35011G20KT 10SM BKN015 OVC034 05/02 A2978 RMK AO2
RAB26E51 SLP073 P0000 T00500022


USA.gov is the U.S. government's official web portal to all federal, state and local government web resources and services.